sensor_id;sensor_type;location;lat;lon;timestamp;temperature;humidity
39655;DHT22;25336;59.944;11.010;2023-05-01T00:00:01;8.30;41.20
39655;DHT22;25336;59.944;11.010;2023-05-01T00:02:29;9.30;41.80
39655;DHT22;25336;59.944;11.010;2023-05-01T00:04:55;8.20;41.20
39655;DHT22;25336;59.944;11.010;2023-05-01T00:07:21;8.20;41.30
39655;DHT22;25336;59.944;11.010;2023-05-01T00:09:46;8.20;41.40
39655;DHT22;25336;59.944;11.010;2023-05-01T00:12:12;8.20;41.40
39655;DHT22;25336;59.944;11.010;2023-05-01T00:14:38;8.20;41.60
39655;DHT22;25336;59.944;11.010;2023-05-01T00:17:04;8.20;41.60
39655;DHT22;25336;59.944;11.010;2023-05-01T00:19:30;8.20;41.70
39655;DHT22;25336;59.944;11.010;2023-05-01T00:21:57;8.10;41.70
39655;DHT22;25336;59.944;11.010;2023-05-01T00:24:22;8.10;41.80
39655;DHT22;25336;59.944;11.010;2023-05-01T00:26:48;8.10;41.90
39655;DHT22;25336;59.944;11.010;2023-05-01T00:29:14;8.30;42.00
39655;DHT22;25336;59.944;11.010;2023-05-01T00:31:41;8.00;42.00
39655;DHT22;25336;59.944;11.010;2023-05-01T00:34:07;8.20;42.00
39655;DHT22;25336;59.944;11.010;2023-05-01T00:36:32;8.00;41.90
39655;DHT22;25336;59.944;11.010;2023-05-01T00:38:58;8.40;42.20
39655;DHT22;25336;59.944;11.010;2023-05-01T00:41:23;8.00;42.00
39655;DHT22;25336;59.944;11.010;2023-05-01T00:43:49;7.90;42.00
39655;DHT22;25336;59.944;11.010;2023-05-01T00:46:15;8.20;42.20
39655;DHT22;25336;59.944;11.010;2023-05-01T00:48:41;7.90;42.20
39655;DHT22;25336;59.944;11.010;2023-05-01T00:51:07;8.50;42.40
39655;DHT22;25336;59.944;11.010;2023-05-01T00:53:33;7.90;42.20
39655;DHT22;25336;59.944;11.010;2023-05-01T00:55:59;8.20;42.30
39655;DHT22;25336;59.944;11.010;2023-05-01T00:58:25;7.80;42.20
39655;DHT22;25336;59.944;11.010;2023-05-01T01:00:51;7.80;42.30
39655;DHT22;25336;59.944;11.010;2023-05-01T01:03:18;7.80;42.40
39655;DHT22;25336;59.944;11.010;2023-05-01T01:05:52;8.00;42.60
39655;DHT22;25336;59.944;11.010;2023-05-01T01:08:41;8.00;42.80
39655;DHT22;25336;59.944;11.010;2023-05-01T01:11:19;7.80;42.80
39655;DHT22;25336;59.944;11.010;2023-05-01T01:13:55;7.80;42.70
39655;DHT22;25336;59.944;11.010;2023-05-01T01:16:32;8.80;43.00
39655;DHT22;25336;59.944;11.010;2023-05-01T01:19:05;7.80;42.60
39655;DHT22;25336;59.944;11.010;2023-05-01T01:21:42;7.70;42.60
39655;DHT22;25336;59.944;11.010;2023-05-01T01:32:57;7.80;43.60
39655;DHT22;25336;59.944;11.010;2023-05-01T01:35:26;7.70;43.70
39655;DHT22;25336;59.944;11.010;2023-05-01T01:40:52;7.70;43.90
39655;DHT22;25336;59.944;11.010;2023-05-01T01:43:20;7.60;43.90
39655;DHT22;25336;59.944;11.010;2023-05-01T01:45:49;8.00;43.90
39655;DHT22;25336;59.944;11.010;2023-05-01T01:48:21;7.60;43.70
39655;DHT22;25336;59.944;11.010;2023-05-01T01:50:48;8.20;44.30
39655;DHT22;25336;59.944;11.010;2023-05-01T01:53:16;7.60;44.10
39655;DHT22;25336;59.944;11.010;2023-05-01T01:55:44;7.60;43.50
39655;DHT22;25336;59.944;11.010;2023-05-01T01:58:11;7.50;43.60
39655;DHT22;25336;59.944;11.010;2023-05-01T02:00:39;7.70;44.00
39655;DHT22;25336;59.944;11.010;2023-05-01T02:03:08;7.50;44.10
39655;DHT22;25336;59.944;11.010;2023-05-01T02:05:35;7.30;44.10
39655;DHT22;25336;59.944;11.010;2023-05-01T02:08:03;7.50;44.40
39655;DHT22;25336;59.944;11.010;2023-05-01T02:10:29;7.50;44.50
39655;DHT22;25336;59.944;11.010;2023-05-01T02:12:58;7.90;44.70
39655;DHT22;25336;59.944;11.010;2023-05-01T02:15:25;7.50;44.60
39655;DHT22;25336;59.944;11.010;2023-05-01T02:17:52;7.40;44.50
39655;DHT22;25336;59.944;11.010;2023-05-01T02:20:20;7.40;44.50
39655;DHT22;25336;59.944;11.010;2023-05-01T02:22:47;7.40;44.60
39655;DHT22;25336;59.944;11.010;2023-05-01T02:25:13;7.40;44.60
39655;DHT22;25336;59.944;11.010;2023-05-01T02:27:49;7.40;44.50
39655;DHT22;25336;59.944;11.010;2023-05-01T02:30:17;7.40;44.70
39655;DHT22;25336;59.944;11.010;2023-05-01T02:32:43;7.50;44.60
39655;DHT22;25336;59.944;11.010;2023-05-01T02:35:09;7.50;44.60
39655;DHT22;25336;59.944;11.010;2023-05-01T02:37:36;7.50;44.60
39655;DHT22;25336;59.944;11.010;2023-05-01T02:40:03;7.80;44.80
39655;DHT22;25336;59.944;11.010;2023-05-01T02:42:29;7.50;44.70
39655;DHT22;25336;59.944;11.010;2023-05-01T02:45:19;7.50;44.60
39655;DHT22;25336;59.944;11.010;2023-05-01T02:47:47;7.50;45.00
39655;DHT22;25336;59.944;11.010;2023-05-01T02:50:14;8.30;45.10
39655;DHT22;25336;59.944;11.010;2023-05-01T02:52:41;7.50;44.70
39655;DHT22;25336;59.944;11.010;2023-05-01T02:55:08;7.50;45.40
39655;DHT22;25336;59.944;11.010;2023-05-01T02:57:34;7.50;44.80
39655;DHT22;25336;59.944;11.010;2023-05-01T03:00:00;7.50;44.90
39655;DHT22;25336;59.944;11.010;2023-05-01T03:02:25;7.50;45.00
39655;DHT22;25336;59.944;11.010;2023-05-01T03:04:51;8.00;45.30
39655;DHT22;25336;59.944;11.010;2023-05-01T03:07:16;7.50;45.10
39655;DHT22;25336;59.944;11.010;2023-05-01T03:09:42;7.50;45.10
39655;DHT22;25336;59.944;11.010;2023-05-01T03:12:08;7.50;45.20
39655;DHT22;25336;59.944;11.010;2023-05-01T03:14:33;7.50;45.30
39655;DHT22;25336;59.944;11.010;2023-05-01T03:17:00;7.50;45.40
39655;DHT22;25336;59.944;11.010;2023-05-01T03:19:26;7.50;45.40
39655;DHT22;25336;59.944;11.010;2023-05-01T03:21:51;7.50;45.30
39655;DHT22;25336;59.944;11.010;2023-05-01T03:24:17;7.50;45.40
39655;DHT22;25336;59.944;11.010;2023-05-01T03:26:42;7.90;45.60
39655;DHT22;25336;59.944;11.010;2023-05-01T03:29:08;7.50;45.50
39655;DHT22;25336;59.944;11.010;2023-05-01T03:31:34;8.10;45.90
39655;DHT22;25336;59.944;11.010;2023-05-01T03:33:59;8.40;46.10
39655;DHT22;25336;59.944;11.010;2023-05-01T03:36:25;8.00;45.90
39655;DHT22;25336;59.944;11.010;2023-05-01T03:38:52;7.50;45.70
39655;DHT22;25336;59.944;11.010;2023-05-01T03:41:17;7.50;45.60
39655;DHT22;25336;59.944;11.010;2023-05-01T03:43:43;7.50;45.50
39655;DHT22;25336;59.944;11.010;2023-05-01T03:46:09;8.10;45.80
39655;DHT22;25336;59.944;11.010;2023-05-01T03:48:34;8.30;45.90
39655;DHT22;25336;59.944;11.010;2023-05-01T03:51:00;7.70;45.70
39655;DHT22;25336;59.944;11.010;2023-05-01T03:53:26;7.40;45.80
39655;DHT22;25336;59.944;11.010;2023-05-01T03:55:51;7.40;45.90
39655;DHT22;25336;59.944;11.010;2023-05-01T03:58:17;7.40;45.90
39655;DHT22;25336;59.944;11.010;2023-05-01T04:00:42;7.90;46.40
39655;DHT22;25336;59.944;11.010;2023-05-01T04:03:08;8.50;46.70
39655;DHT22;25336;59.944;11.010;2023-05-01T04:05:34;7.40;46.40
39655;DHT22;25336;59.944;11.010;2023-05-01T04:08:00;7.40;46.30
39655;DHT22;25336;59.944;11.010;2023-05-01T04:10:25;7.40;46.70
39655;DHT22;25336;59.944;11.010;2023-05-01T04:12:51;7.40;46.70
39655;DHT22;25336;59.944;11.010;2023-05-01T04:15:17;7.40;47.00
39655;DHT22;25336;59.944;11.010;2023-05-01T04:17:43;7.40;47.30
39655;DHT22;25336;59.944;11.010;2023-05-01T04:20:09;7.40;47.40
39655;DHT22;25336;59.944;11.010;2023-05-01T04:22:35;7.40;47.70
39655;DHT22;25336;59.944;11.010;2023-05-01T04:25:01;8.60;48.30
39655;DHT22;25336;59.944;11.010;2023-05-01T04:27:27;7.40;47.80
39655;DHT22;25336;59.944;11.010;2023-05-01T04:29:54;7.40;47.80
39655;DHT22;25336;59.944;11.010;2023-05-01T04:32:19;7.40;48.20
39655;DHT22;25336;59.944;11.010;2023-05-01T04:34:45;7.40;48.10
39655;DHT22;25336;59.944;11.010;2023-05-01T04:37:10;7.40;48.60
39655;DHT22;25336;59.944;11.010;2023-05-01T04:39:36;7.40;49.40
39655;DHT22;25336;59.944;11.010;2023-05-01T04:42:02;7.40;49.60
39655;DHT22;25336;59.944;11.010;2023-05-01T04:44:28;7.40;50.20
39655;DHT22;25336;59.944;11.010;2023-05-01T04:46:54;7.30;50.00
39655;DHT22;25336;59.944;11.010;2023-05-01T04:49:23;6.40;50.20
39655;DHT22;25336;59.944;11.010;2023-05-01T04:51:48;7.40;51.10
39655;DHT22;25336;59.944;11.010;2023-05-01T04:54:15;7.00;51.10
39655;DHT22;25336;59.944;11.010;2023-05-01T04:56:40;7.00;51.60
39655;DHT22;25336;59.944;11.010;2023-05-01T04:59:06;7.00;52.00
39655;DHT22;25336;59.944;11.010;2023-05-01T05:01:31;6.80;51.90
39655;DHT22;25336;59.944;11.010;2023-05-01T05:03:57;6.80;52.40
39655;DHT22;25336;59.944;11.010;2023-05-01T05:06:22;6.70;52.60
39655;DHT22;25336;59.944;11.010;2023-05-01T05:08:48;6.60;52.60
39655;DHT22;25336;59.944;11.010;2023-05-01T05:11:17;6.60;52.70
39655;DHT22;25336;59.944;11.010;2023-05-01T05:13:43;6.50;53.00
39655;DHT22;25336;59.944;11.010;2023-05-01T05:16:09;6.50;53.20
39655;DHT22;25336;59.944;11.010;2023-05-01T05:18:35;7.00;53.70
39655;DHT22;25336;59.944;11.010;2023-05-01T05:21:04;6.40;53.70
39655;DHT22;25336;59.944;11.010;2023-05-01T05:23:30;7.30;54.40
39655;DHT22;25336;59.944;11.010;2023-05-01T05:25:55;6.40;54.10
39655;DHT22;25336;59.944;11.010;2023-05-01T05:28:26;6.40;54.00
39655;DHT22;25336;59.944;11.010;2023-05-01T05:30:52;6.40;54.20
39655;DHT22;25336;59.944;11.010;2023-05-01T05:33:24;6.80;54.40
39655;DHT22;25336;59.944;11.010;2023-05-01T05:35:50;6.40;54.70
39655;DHT22;25336;59.944;11.010;2023-05-01T05:38:16;6.40;55.30
39655;DHT22;25336;59.944;11.010;2023-05-01T05:40:42;7.30;54.20
39655;DHT22;25336;59.944;11.010;2023-05-01T05:43:07;6.40;54.50
39655;DHT22;25336;59.944;11.010;2023-05-01T05:45:35;6.30;54.70
39655;DHT22;25336;59.944;11.010;2023-05-01T05:48:01;6.40;54.90
39655;DHT22;25336;59.944;11.010;2023-05-01T05:50:27;6.40;55.30
39655;DHT22;25336;59.944;11.010;2023-05-01T05:52:53;6.40;55.30
39655;DHT22;25336;59.944;11.010;2023-05-01T05:55:19;6.40;55.40
39655;DHT22;25336;59.944;11.010;2023-05-01T05:57:44;6.70;55.80
39655;DHT22;25336;59.944;11.010;2023-05-01T06:00:10;6.40;55.80
39655;DHT22;25336;59.944;11.010;2023-05-01T06:02:37;6.40;55.90
39655;DHT22;25336;59.944;11.010;2023-05-01T06:05:05;6.40;55.80
39655;DHT22;25336;59.944;11.010;2023-05-01T06:07:30;6.40;56.10
39655;DHT22;25336;59.944;11.010;2023-05-01T06:09:56;7.40;56.60
39655;DHT22;25336;59.944;11.010;2023-05-01T06:12:29;6.50;56.30
39655;DHT22;25336;59.944;11.010;2023-05-01T06:14:56;6.60;56.60
39655;DHT22;25336;59.944;11.010;2023-05-01T06:17:23;6.60;56.50
39655;DHT22;25336;59.944;11.010;2023-05-01T06:19:48;7.20;56.70
39655;DHT22;25336;59.944;11.010;2023-05-01T06:22:17;7.40;56.80
39655;DHT22;25336;59.944;11.010;2023-05-01T06:24:43;6.10;56.60
39655;DHT22;25336;59.944;11.010;2023-05-01T06:27:09;6.70;56.80
39655;DHT22;25336;59.944;11.010;2023-05-01T06:29:34;7.30;57.00
39655;DHT22;25336;59.944;11.010;2023-05-01T06:32:01;6.70;57.00
39655;DHT22;25336;59.944;11.010;2023-05-01T06:34:26;7.20;57.40
39655;DHT22;25336;59.944;11.010;2023-05-01T06:36:52;6.70;57.30
39655;DHT22;25336;59.944;11.010;2023-05-01T06:39:18;6.70;57.40
39655;DHT22;25336;59.944;11.010;2023-05-01T06:41:46;6.70;57.60
39655;DHT22;25336;59.944;11.010;2023-05-01T06:44:12;6.70;58.00
39655;DHT22;25336;59.944;11.010;2023-05-01T06:46:38;7.00;57.90
39655;DHT22;25336;59.944;11.010;2023-05-01T06:49:04;7.40;58.20
39655;DHT22;25336;59.944;11.010;2023-05-01T06:51:29;6.80;57.70
39655;DHT22;25336;59.944;11.010;2023-05-01T06:53:56;6.80;57.80
39655;DHT22;25336;59.944;11.010;2023-05-01T06:56:21;6.20;57.60
39655;DHT22;25336;59.944;11.010;2023-05-01T06:58:47;6.90;58.00
39655;DHT22;25336;59.944;11.010;2023-05-01T07:01:13;6.80;57.90
39655;DHT22;25336;59.944;11.010;2023-05-01T07:03:38;6.80;57.90
39655;DHT22;25336;59.944;11.010;2023-05-01T07:06:04;6.80;57.90
39655;DHT22;25336;59.944;11.010;2023-05-01T07:08:30;6.90;58.10
39655;DHT22;25336;59.944;11.010;2023-05-01T07:10:56;6.90;58.50
39655;DHT22;25336;59.944;11.010;2023-05-01T07:13:23;6.90;58.10
39655;DHT22;25336;59.944;11.010;2023-05-01T07:15:48;7.10;58.50
39655;DHT22;25336;59.944;11.010;2023-05-01T07:18:14;6.90;58.60
39655;DHT22;25336;59.944;11.010;2023-05-01T07:20:41;7.30;58.30
39655;DHT22;25336;59.944;11.010;2023-05-01T07:23:07;7.80;59.30
39655;DHT22;25336;59.944;11.010;2023-05-01T07:25:34;6.90;58.50
39655;DHT22;25336;59.944;11.010;2023-05-01T07:28:06;7.00;58.50
39655;DHT22;25336;59.944;11.010;2023-05-01T07:30:32;7.00;58.10
39655;DHT22;25336;59.944;11.010;2023-05-01T07:32:59;7.20;58.00
39655;DHT22;25336;59.944;11.010;2023-05-01T07:35:25;7.00;58.20
39655;DHT22;25336;59.944;11.010;2023-05-01T07:37:51;7.80;58.70
39655;DHT22;25336;59.944;11.010;2023-05-01T07:40:19;7.00;58.70
39655;DHT22;25336;59.944;11.010;2023-05-01T07:42:44;7.00;58.80
39655;DHT22;25336;59.944;11.010;2023-05-01T07:45:10;7.00;58.40
39655;DHT22;25336;59.944;11.010;2023-05-01T07:47:37;7.00;58.20
39655;DHT22;25336;59.944;11.010;2023-05-01T07:50:03;8.20;58.70
39655;DHT22;25336;59.944;11.010;2023-05-01T07:52:29;6.90;58.30
39655;DHT22;25336;59.944;11.010;2023-05-01T07:54:54;7.90;58.30
39655;DHT22;25336;59.944;11.010;2023-05-01T07:57:20;6.90;57.90
39655;DHT22;25336;59.944;11.010;2023-05-01T07:59:47;6.90;57.80
39655;DHT22;25336;59.944;11.010;2023-05-01T08:02:17;6.90;58.70
39655;DHT22;25336;59.944;11.010;2023-05-01T08:04:43;7.40;59.00
39655;DHT22;25336;59.944;11.010;2023-05-01T08:07:10;6.90;58.80
39655;DHT22;25336;59.944;11.010;2023-05-01T08:09:35;7.60;59.60
39655;DHT22;25336;59.944;11.010;2023-05-01T08:12:01;6.90;59.10
39655;DHT22;25336;59.944;11.010;2023-05-01T08:14:28;7.30;59.40
39655;DHT22;25336;59.944;11.010;2023-05-01T08:16:54;7.00;59.40
39655;DHT22;25336;59.944;11.010;2023-05-01T08:19:20;7.00;59.30
39655;DHT22;25336;59.944;11.010;2023-05-01T08:21:46;8.20;59.90
39655;DHT22;25336;59.944;11.010;2023-05-01T08:24:11;7.00;58.90
39655;DHT22;25336;59.944;11.010;2023-05-01T08:26:37;7.00;59.00
39655;DHT22;25336;59.944;11.010;2023-05-01T08:29:02;7.00;58.90
39655;DHT22;25336;59.944;11.010;2023-05-01T08:31:28;7.40;59.00
39655;DHT22;25336;59.944;11.010;2023-05-01T08:33:56;6.90;58.90
39655;DHT22;25336;59.944;11.010;2023-05-01T08:36:22;6.90;58.60
39655;DHT22;25336;59.944;11.010;2023-05-01T08:38:47;6.90;58.60
39655;DHT22;25336;59.944;11.010;2023-05-01T08:41:20;6.80;58.70
39655;DHT22;25336;59.944;11.010;2023-05-01T08:43:47;6.80;59.20
39655;DHT22;25336;59.944;11.010;2023-05-01T08:46:17;6.80;59.00
39655;DHT22;25336;59.944;11.010;2023-05-01T08:48:46;6.80;58.90
39655;DHT22;25336;59.944;11.010;2023-05-01T08:51:14;6.80;59.00
39655;DHT22;25336;59.944;11.010;2023-05-01T08:53:42;7.70;59.60
39655;DHT22;25336;59.944;11.010;2023-05-01T08:56:09;6.70;59.30
39655;DHT22;25336;59.944;11.010;2023-05-01T08:58:38;7.50;59.70
39655;DHT22;25336;59.944;11.010;2023-05-01T09:01:05;6.70;59.60
39655;DHT22;25336;59.944;11.010;2023-05-01T09:03:32;6.70;59.80
39655;DHT22;25336;59.944;11.010;2023-05-01T09:05:59;6.70;60.60
39655;DHT22;25336;59.944;11.010;2023-05-01T09:08:26;7.10;60.40
39655;DHT22;25336;59.944;11.010;2023-05-01T09:10:53;6.60;60.50
39655;DHT22;25336;59.944;11.010;2023-05-01T09:13:21;6.60;61.00
39655;DHT22;25336;59.944;11.010;2023-05-01T09:15:46;6.50;60.80
39655;DHT22;25336;59.944;11.010;2023-05-01T09:18:12;6.50;61.00
39655;DHT22;25336;59.944;11.010;2023-05-01T09:20:38;6.50;60.70
39655;DHT22;25336;59.944;11.010;2023-05-01T09:23:04;6.90;61.80
39655;DHT22;25336;59.944;11.010;2023-05-01T09:25:30;7.20;61.80
39655;DHT22;25336;59.944;11.010;2023-05-01T09:27:56;6.60;61.10
39655;DHT22;25336;59.944;11.010;2023-05-01T09:30:37;6.60;60.90
39655;DHT22;25336;59.944;11.010;2023-05-01T09:33:11;6.60;61.30
39655;DHT22;25336;59.944;11.010;2023-05-01T09:35:53;6.60;61.40
39655;DHT22;25336;59.944;11.010;2023-05-01T09:38:26;6.70;61.90
39655;DHT22;25336;59.944;11.010;2023-05-01T09:41:02;6.70;61.50
39655;DHT22;25336;59.944;11.010;2023-05-01T09:43:28;6.70;61.40
39655;DHT22;25336;59.944;11.010;2023-05-01T09:46:06;6.80;61.60
39655;DHT22;25336;59.944;11.010;2023-05-01T09:48:35;6.80;61.50
39655;DHT22;25336;59.944;11.010;2023-05-01T09:53:44;6.80;61.20
39655;DHT22;25336;59.944;11.010;2023-05-01T09:56:10;6.80;60.20
39655;DHT22;25336;59.944;11.010;2023-05-01T09:58:35;6.80;60.90
39655;DHT22;25336;59.944;11.010;2023-05-01T10:01:01;6.80;60.90
39655;DHT22;25336;59.944;11.010;2023-05-01T10:03:27;6.80;60.80
39655;DHT22;25336;59.944;11.010;2023-05-01T10:05:53;6.80;60.90
39655;DHT22;25336;59.944;11.010;2023-05-01T10:08:22;6.80;61.60
39655;DHT22;25336;59.944;11.010;2023-05-01T10:11:03;6.80;61.20
39655;DHT22;25336;59.944;11.010;2023-05-01T10:13:29;6.80;62.20
39655;DHT22;25336;59.944;11.010;2023-05-01T10:15:56;7.00;61.30
39655;DHT22;25336;59.944;11.010;2023-05-01T10:18:22;6.80;61.30
39655;DHT22;25336;59.944;11.010;2023-05-01T10:20:50;6.70;61.50
39655;DHT22;25336;59.944;11.010;2023-05-01T10:23:16;6.70;61.60
39655;DHT22;25336;59.944;11.010;2023-05-01T10:25:41;6.60;61.70
39655;DHT22;25336;59.944;11.010;2023-05-01T10:28:08;6.60;61.70
39655;DHT22;25336;59.944;11.010;2023-05-01T10:30:34;7.20;61.80
39655;DHT22;25336;59.944;11.010;2023-05-01T10:33:03;6.40;61.30
39655;DHT22;25336;59.944;11.010;2023-05-01T10:35:35;6.30;61.60
39655;DHT22;25336;59.944;11.010;2023-05-01T10:38:07;6.20;62.20
39655;DHT22;25336;59.944;11.010;2023-05-01T10:40:44;6.10;62.40
39655;DHT22;25336;59.944;11.010;2023-05-01T10:43:26;6.10;63.20
39655;DHT22;25336;59.944;11.010;2023-05-01T10:51:11;6.30;63.20
39655;DHT22;25336;59.944;11.010;2023-05-01T10:53:39;5.90;63.00
39655;DHT22;25336;59.944;11.010;2023-05-01T10:56:38;5.90;63.00
39655;DHT22;25336;59.944;11.010;2023-05-01T10:59:05;5.90;63.30
39655;DHT22;25336;59.944;11.010;2023-05-01T11:03:58;5.70;63.00
39655;DHT22;25336;59.944;11.010;2023-05-01T11:06:24;5.70;62.50
39655;DHT22;25336;59.944;11.010;2023-05-01T11:08:50;6.10;63.80
39655;DHT22;25336;59.944;11.010;2023-05-01T11:14:04;5.60;64.00
39655;DHT22;25336;59.944;11.010;2023-05-01T11:16:43;5.60;65.00
39655;DHT22;25336;59.944;11.010;2023-05-01T11:19:43;5.60;65.40
39655;DHT22;25336;59.944;11.010;2023-05-01T11:21:58;5.60;66.30
39655;DHT22;25336;59.944;11.010;2023-05-01T11:24:30;5.60;66.00
39655;DHT22;25336;59.944;11.010;2023-05-01T11:26:57;6.10;66.40
39655;DHT22;25336;59.944;11.010;2023-05-01T11:29:30;6.70;66.70
39655;DHT22;25336;59.944;11.010;2023-05-01T11:31:57;5.80;66.80
39655;DHT22;25336;59.944;11.010;2023-05-01T11:34:23;5.90;66.00
39655;DHT22;25336;59.944;11.010;2023-05-01T11:36:50;6.70;66.30
39655;DHT22;25336;59.944;11.010;2023-05-01T11:39:17;5.90;67.60
39655;DHT22;25336;59.944;11.010;2023-05-01T11:41:44;5.90;66.70
39655;DHT22;25336;59.944;11.010;2023-05-01T11:44:16;6.00;66.50
39655;DHT22;25336;59.944;11.010;2023-05-01T11:46:41;6.00;67.60
39655;DHT22;25336;59.944;11.010;2023-05-01T11:49:07;6.10;66.80
39655;DHT22;25336;59.944;11.010;2023-05-01T11:51:34;6.60;66.30
39655;DHT22;25336;59.944;11.010;2023-05-01T11:54:04;6.30;65.80
39655;DHT22;25336;59.944;11.010;2023-05-01T11:56:31;5.70;66.10
39655;DHT22;25336;59.944;11.010;2023-05-01T11:58:58;6.40;66.50
39655;DHT22;25336;59.944;11.010;2023-05-01T12:01:34;6.40;66.60
39655;DHT22;25336;59.944;11.010;2023-05-01T12:04:01;6.50;66.90
39655;DHT22;25336;59.944;11.010;2023-05-01T12:06:40;6.50;66.60
39655;DHT22;25336;59.944;11.010;2023-05-01T12:09:24;7.10;66.70
39655;DHT22;25336;59.944;11.010;2023-05-01T12:11:52;6.70;66.40
39655;DHT22;25336;59.944;11.010;2023-05-01T12:14:19;6.80;65.60
39655;DHT22;25336;59.944;11.010;2023-05-01T12:16:46;6.80;65.90
39655;DHT22;25336;59.944;11.010;2023-05-01T12:19:13;6.90;65.90
39655;DHT22;25336;59.944;11.010;2023-05-01T12:21:39;7.40;66.50
39655;DHT22;25336;59.944;11.010;2023-05-01T12:24:09;7.00;65.80
39655;DHT22;25336;59.944;11.010;2023-05-01T12:26:35;7.10;66.00
39655;DHT22;25336;59.944;11.010;2023-05-01T12:29:06;7.20;65.20
39655;DHT22;25336;59.944;11.010;2023-05-01T12:31:33;7.40;65.60
39655;DHT22;25336;59.944;11.010;2023-05-01T12:34:06;7.30;65.10
39655;DHT22;25336;59.944;11.010;2023-05-01T12:36:34;7.30;65.30
39655;DHT22;25336;59.944;11.010;2023-05-01T12:39:06;7.30;64.90
39655;DHT22;25336;59.944;11.010;2023-05-01T12:41:42;7.30;65.00
39655;DHT22;25336;59.944;11.010;2023-05-01T12:44:25;7.30;65.20
39655;DHT22;25336;59.944;11.010;2023-05-01T12:49:22;7.40;64.20
39655;DHT22;25336;59.944;11.010;2023-05-01T12:51:48;7.40;64.20
39655;DHT22;25336;59.944;11.010;2023-05-01T12:54:34;7.70;64.10
39655;DHT22;25336;59.944;11.010;2023-05-01T12:57:09;7.40;63.90
39655;DHT22;25336;59.944;11.010;2023-05-01T12:59:39;7.50;63.60
39655;DHT22;25336;59.944;11.010;2023-05-01T13:02:10;7.50;63.70
39655;DHT22;25336;59.944;11.010;2023-05-01T13:04:37;7.50;63.70
39655;DHT22;25336;59.944;11.010;2023-05-01T13:09:53;7.60;63.70
39655;DHT22;25336;59.944;11.010;2023-05-01T13:12:19;7.60;63.20
39655;DHT22;25336;59.944;11.010;2023-05-01T13:14:45;7.60;63.00
39655;DHT22;25336;59.944;11.010;2023-05-01T13:17:11;7.70;63.10
39655;DHT22;25336;59.944;11.010;2023-05-01T13:19:37;7.70;63.70
39655;DHT22;25336;59.944;11.010;2023-05-01T13:22:06;7.70;63.70
39655;DHT22;25336;59.944;11.010;2023-05-01T13:24:42;7.80;63.00
39655;DHT22;25336;59.944;11.010;2023-05-01T13:27:11;7.80;62.80
39655;DHT22;25336;59.944;11.010;2023-05-01T13:29:38;7.90;62.90
39655;DHT22;25336;59.944;11.010;2023-05-01T13:32:09;7.90;62.60
39655;DHT22;25336;59.944;11.010;2023-05-01T13:34:35;8.00;62.40
39655;DHT22;25336;59.944;11.010;2023-05-01T13:37:02;8.00;62.00
39655;DHT22;25336;59.944;11.010;2023-05-01T13:39:28;8.00;62.10
39655;DHT22;25336;59.944;11.010;2023-05-01T13:41:53;8.00;61.50
39655;DHT22;25336;59.944;11.010;2023-05-01T13:44:20;8.90;62.20
39655;DHT22;25336;59.944;11.010;2023-05-01T13:46:47;8.10;61.50
39655;DHT22;25336;59.944;11.010;2023-05-01T13:49:13;8.10;61.50
39655;DHT22;25336;59.944;11.010;2023-05-01T13:51:43;8.10;61.30
39655;DHT22;25336;59.944;11.010;2023-05-01T13:54:10;8.10;61.50
39655;DHT22;25336;59.944;11.010;2023-05-01T13:56:37;8.20;61.20
39655;DHT22;25336;59.944;11.010;2023-05-01T13:59:04;8.20;61.10
39655;DHT22;25336;59.944;11.010;2023-05-01T14:01:30;8.30;60.80
39655;DHT22;25336;59.944;11.010;2023-05-01T14:03:56;8.70;61.00
39655;DHT22;25336;59.944;11.010;2023-05-01T14:06:22;8.30;60.80
39655;DHT22;25336;59.944;11.010;2023-05-01T14:08:56;7.80;60.70
39655;DHT22;25336;59.944;11.010;2023-05-01T14:11:22;8.30;60.50
39655;DHT22;25336;59.944;11.010;2023-05-01T14:13:49;8.40;60.00
39655;DHT22;25336;59.944;11.010;2023-05-01T14:16:27;8.70;59.80
39655;DHT22;25336;59.944;11.010;2023-05-01T14:18:56;8.40;59.80
39655;DHT22;25336;59.944;11.010;2023-05-01T14:21:25;8.40;59.50
39655;DHT22;25336;59.944;11.010;2023-05-01T14:23:54;8.40;59.50
39655;DHT22;25336;59.944;11.010;2023-05-01T14:26:21;8.40;59.60
39655;DHT22;25336;59.944;11.010;2023-05-01T14:28:48;8.40;59.20
39655;DHT22;25336;59.944;11.010;2023-05-01T14:31:27;8.40;58.90
39655;DHT22;25336;59.944;11.010;2023-05-01T14:33:59;8.40;59.40
39655;DHT22;25336;59.944;11.010;2023-05-01T14:36:25;8.40;59.20
39655;DHT22;25336;59.944;11.010;2023-05-01T14:38:55;9.40;59.60
39655;DHT22;25336;59.944;11.010;2023-05-01T14:41:21;8.50;59.20
39655;DHT22;25336;59.944;11.010;2023-05-01T14:43:47;8.80;59.10
39655;DHT22;25336;59.944;11.010;2023-05-01T14:46:26;8.50;58.80
39655;DHT22;25336;59.944;11.010;2023-05-01T14:48:51;8.50;58.70
39655;DHT22;25336;59.944;11.010;2023-05-01T14:51:18;8.50;58.70
39655;DHT22;25336;59.944;11.010;2023-05-01T14:53:44;8.50;58.60
39655;DHT22;25336;59.944;11.010;2023-05-01T14:56:11;8.50;58.70
39655;DHT22;25336;59.944;11.010;2023-05-01T14:58:37;8.50;59.00
39655;DHT22;25336;59.944;11.010;2023-05-01T15:01:03;8.60;59.00
39655;DHT22;25336;59.944;11.010;2023-05-01T15:03:29;8.60;58.80
39655;DHT22;25336;59.944;11.010;2023-05-01T15:05:55;8.70;58.50
39655;DHT22;25336;59.944;11.010;2023-05-01T15:08:21;8.70;58.30
39655;DHT22;25336;59.944;11.010;2023-05-01T15:10:47;8.70;58.10
39655;DHT22;25336;59.944;11.010;2023-05-01T15:13:12;8.80;57.90
39655;DHT22;25336;59.944;11.010;2023-05-01T15:15:38;8.80;58.00
39655;DHT22;25336;59.944;11.010;2023-05-01T15:18:04;9.90;58.50
39655;DHT22;25336;59.944;11.010;2023-05-01T15:20:30;8.90;58.00
39655;DHT22;25336;59.944;11.010;2023-05-01T15:22:56;9.00;57.80
39655;DHT22;25336;59.944;11.010;2023-05-01T15:25:21;9.00;57.70
39655;DHT22;25336;59.944;11.010;2023-05-01T15:27:47;9.10;57.80
39655;DHT22;25336;59.944;11.010;2023-05-01T15:30:14;9.10;57.60
39655;DHT22;25336;59.944;11.010;2023-05-01T15:32:40;9.20;57.30
39655;DHT22;25336;59.944;11.010;2023-05-01T15:35:07;9.20;57.00
39655;DHT22;25336;59.944;11.010;2023-05-01T15:37:33;10.10;57.40
39655;DHT22;25336;59.944;11.010;2023-05-01T15:39:59;9.30;56.80
39655;DHT22;25336;59.944;11.010;2023-05-01T15:42:25;9.30;56.70
39655;DHT22;25336;59.944;11.010;2023-05-01T15:44:51;9.30;56.10
39655;DHT22;25336;59.944;11.010;2023-05-01T15:47:16;9.30;56.00
39655;DHT22;25336;59.944;11.010;2023-05-01T15:49:42;9.30;55.70
39655;DHT22;25336;59.944;11.010;2023-05-01T15:52:08;9.30;55.80
39655;DHT22;25336;59.944;11.010;2023-05-01T15:54:33;9.30;55.90
39655;DHT22;25336;59.944;11.010;2023-05-01T15:56:59;9.30;55.70
39655;DHT22;25336;59.944;11.010;2023-05-01T15:59:28;9.30;55.70
39655;DHT22;25336;59.944;11.010;2023-05-01T16:01:54;9.30;55.80